createdAt,value
2022-10-04T00:00:38.969Z,2.33
2022-10-04T00:03:11.124Z,2.03
2022-10-04T00:05:39.188Z,2.20
2022-10-04T00:08:35.236Z,2.13
2022-10-04T00:11:05.574Z,2.15
2022-10-04T00:13:32.713Z,2.22
2022-10-04T00:15:59.618Z,2.15
2022-10-04T00:18:31.794Z,1.77
2022-10-04T00:21:03.943Z,2.10
2022-10-04T00:23:36.725Z,2.30
2022-10-04T00:26:35.659Z,2.28
2022-10-04T00:29:35.249Z,1.80
2022-10-04T00:32:11.195Z,2.50
2022-10-04T00:34:51.195Z,2.10
2022-10-04T00:37:19.960Z,2.22
2022-10-04T00:39:56.110Z,2.72
2022-10-04T00:42:28.767Z,2.30
2022-10-04T00:45:10.683Z,2.50
2022-10-04T00:47:37.299Z,2.78
2022-10-04T00:50:15.425Z,2.45
2022-10-04T00:52:46.640Z,2.00
2022-10-04T00:55:40.924Z,2.22
2022-10-04T00:58:16.640Z,2.20
2022-10-04T01:00:43.690Z,2.25
2022-10-04T01:03:30.973Z,2.55
2022-10-04T01:06:01.425Z,2.45
2022-10-04T01:08:34.118Z,2.22
2022-10-04T01:11:10.112Z,2.20
2022-10-04T01:13:52.516Z,2.08
2022-10-04T01:16:29.929Z,2.40
2022-10-04T01:19:25.076Z,2.60
2022-10-04T01:22:12.663Z,3.13
2022-10-04T01:24:43.961Z,2.17
2022-10-04T01:27:35.638Z,2.10
2022-10-04T01:30:05.674Z,3.85
2022-10-04T01:32:32.410Z,2.47
2022-10-04T01:34:59.539Z,2.85
2022-10-04T01:37:27.619Z,2.50
2022-10-04T01:39:54.396Z,1.98
2022-10-04T01:42:21.745Z,2.60
2022-10-04T01:44:51.046Z,2.15
2022-10-04T01:47:24.033Z,1.92
2022-10-04T01:49:52.056Z,1.83
2022-10-04T01:52:36.477Z,2.17
2022-10-04T01:55:13.343Z,2.05
2022-10-04T01:57:47.950Z,2.63
2022-10-04T02:00:14.950Z,2.55
2022-10-04T02:02:55.301Z,2.08
2022-10-04T02:05:35.285Z,1.75
2022-10-04T02:08:08.465Z,1.98
2022-10-04T02:10:39.793Z,2.15
2022-10-04T02:13:12.833Z,1.85
2022-10-04T02:15:40.178Z,2.00
2022-10-04T02:18:12.354Z,2.40
2022-10-04T02:20:40.777Z,1.70
2022-10-04T02:23:07.974Z,2.67
2022-10-04T02:25:37.069Z,2.00
2022-10-04T02:28:04.653Z,2.00
2022-10-04T02:30:38.684Z,2.15
2022-10-04T02:33:05.883Z,1.83
2022-10-04T02:35:45.702Z,2.20
2022-10-04T02:38:23.612Z,2.25
2022-10-04T02:40:59.124Z,2.50
2022-10-04T02:43:36.400Z,2.30
2022-10-04T02:46:32.749Z,2.47
2022-10-04T02:49:01.614Z,1.75
2022-10-04T02:51:37.543Z,2.08
2022-10-04T02:54:14.850Z,2.17
2022-10-04T02:56:42.385Z,2.20
2022-10-04T02:59:16.589Z,2.63
2022-10-04T03:01:53.657Z,1.90
2022-10-04T03:04:23.447Z,1.63
2022-10-04T03:06:50.936Z,2.17
2022-10-04T03:09:20.136Z,2.38
2022-10-04T03:11:47.641Z,2.10
2022-10-04T03:14:18.490Z,2.38
2022-10-04T03:16:45.566Z,2.10
2022-10-04T03:19:13.735Z,2.00
2022-10-04T03:21:42.025Z,2.10
2022-10-04T03:24:10.541Z,2.08
2022-10-04T03:26:41.277Z,1.60
2022-10-04T03:29:10.456Z,2.67
2022-10-04T03:31:48.343Z,1.90
2022-10-04T03:34:25.680Z,1.90
2022-10-04T03:36:56.373Z,1.92
2022-10-04T03:39:33.651Z,1.83
2022-10-04T03:42:07.852Z,1.88
2022-10-04T03:44:35.038Z,2.08
2022-10-04T03:47:02.206Z,1.75
2022-10-04T03:49:35.190Z,1.90
2022-10-04T03:52:03.307Z,1.73
2022-10-04T03:54:33.560Z,2.95
2022-10-04T03:57:00.756Z,1.70
2022-10-04T03:59:28.445Z,2.78
2022-10-04T04:02:33.843Z,1.52
2022-10-04T04:05:25.264Z,1.58
2022-10-04T04:08:00.982Z,2.38
2022-10-04T04:10:30.580Z,1.70
2022-10-04T04:13:11.509Z,1.95
2022-10-04T04:15:42.518Z,1.83
2022-10-04T04:18:19.462Z,1.90
2022-10-04T04:20:46.304Z,2.25
2022-10-04T04:23:15.961Z,2.08
2022-10-04T04:25:47.893Z,1.50
2022-10-04T04:28:28.087Z,1.98
2022-10-04T04:31:04.303Z,2.33
2022-10-04T04:33:35.808Z,1.65
2022-10-04T04:36:07.118Z,1.77
2022-10-04T04:38:35.560Z,2.10
2022-10-04T04:41:10.928Z,1.65
2022-10-04T04:43:43.395Z,2.28
2022-10-04T04:46:26.529Z,3.13
2022-10-04T04:49:01.284Z,1.92
2022-10-04T04:51:28.315Z,2.25
2022-10-04T04:53:55.668Z,1.95
2022-10-04T04:56:29.632Z,2.38
2022-10-04T04:58:59.707Z,2.03
2022-10-04T05:01:33.466Z,2.42
2022-10-04T05:04:17.512Z,2.42
2022-10-04T05:06:46.557Z,2.22
2022-10-04T05:09:26.384Z,2.53
2022-10-04T05:11:55.883Z,2.80
2022-10-04T05:14:22.653Z,2.20
2022-10-04T05:16:52.317Z,2.28
2022-10-04T05:19:21.978Z,2.00
2022-10-04T05:21:50.584Z,2.33
2022-10-04T05:24:31.477Z,2.92
2022-10-04T05:27:02.080Z,2.85
2022-10-04T05:29:32.679Z,3.35
2022-10-04T05:32:16.207Z,2.95
2022-10-04T05:34:47.392Z,2.85
2022-10-04T05:37:24.372Z,2.25
2022-10-04T05:40:13.226Z,2.97
2022-10-04T05:42:45.563Z,2.53
2022-10-04T05:45:28.411Z,2.38
2022-10-04T05:47:57.368Z,2.47
2022-10-04T05:50:32.041Z,2.60
2022-10-04T05:53:24.833Z,2.63
2022-10-04T05:56:00.607Z,2.65
2022-10-04T05:58:42.549Z,4.18
2022-10-04T06:01:23.344Z,2.55
2022-10-04T06:04:09.465Z,2.47
2022-10-04T06:06:49.982Z,2.38
2022-10-04T06:09:37.856Z,2.00
2022-10-04T06:12:14.522Z,2.17
2022-10-04T06:14:58.632Z,3.05
2022-10-04T06:17:51.650Z,2.38
2022-10-04T06:20:50.133Z,2.42
2022-10-04T06:23:18.715Z,3.03
2022-10-04T06:25:59.307Z,2.47
2022-10-04T06:28:29.098Z,2.53
2022-10-04T06:31:28.190Z,2.92
2022-10-04T06:34:39.567Z,2.90
2022-10-04T06:37:23.083Z,2.72
2022-10-04T06:39:58.695Z,2.78
2022-10-04T06:42:34.668Z,3.38
2022-10-04T06:45:10.618Z,4.55
2022-10-04T06:48:15.068Z,2.95
2022-10-04T06:50:59.945Z,3.03
2022-10-04T06:53:30.680Z,2.90
2022-10-04T06:56:23.160Z,2.13
2022-10-04T06:59:23.861Z,3.15
2022-10-04T07:01:52.791Z,2.70
2022-10-04T07:05:06.876Z,4.85
2022-10-04T07:07:35.975Z,3.50
2022-10-04T07:10:21.049Z,2.95
2022-10-04T07:12:53.533Z,4.05
2022-10-04T07:15:24.340Z,3.38
2022-10-04T07:17:53.252Z,3.60
2022-10-04T07:20:27.364Z,3.28
2022-10-04T07:23:06.627Z,4.03
2022-10-04T07:25:49.517Z,4.43
2022-10-04T07:28:39.154Z,4.10
2022-10-04T07:31:14.685Z,4.30
2022-10-04T07:33:51.872Z,4.00
2022-10-04T07:36:23.014Z,4.63
2022-10-04T07:38:54.003Z,4.43
2022-10-04T07:41:28.818Z,4.63
2022-10-04T07:43:58.836Z,5.03
2022-10-04T07:46:37.721Z,4.95
2022-10-04T07:49:04.704Z,5.18
2022-10-04T07:51:42.448Z,4.25
2022-10-04T07:54:22.695Z,4.53
2022-10-04T07:57:15.560Z,3.95
2022-10-04T07:59:52.948Z,3.97
2022-10-04T08:02:31.227Z,4.20
2022-10-04T08:05:13.107Z,3.95
2022-10-04T08:08:00.191Z,3.55
2022-10-04T08:10:36.488Z,3.22
2022-10-04T08:13:12.763Z,3.45
2022-10-04T08:15:41.050Z,3.08
2022-10-04T08:18:26.614Z,3.00
2022-10-04T08:20:57.228Z,3.65
2022-10-04T08:23:39.792Z,3.33
2022-10-04T08:26:40.338Z,2.80
2022-10-04T08:29:44.514Z,2.80
2022-10-04T08:32:27.647Z,2.55
2022-10-04T08:35:29.357Z,2.83
2022-10-04T08:38:02.988Z,2.42
2022-10-04T08:40:33.751Z,2.55
2022-10-04T08:43:13.373Z,2.22
2022-10-04T08:45:49.390Z,2.70
2022-10-04T08:48:24.764Z,2.50
2022-10-04T08:51:29.206Z,2.00
2022-10-04T08:54:26.168Z,2.28
2022-10-04T08:57:16.442Z,2.20
2022-10-04T09:00:10.087Z,2.30
2022-10-04T09:02:42.900Z,2.10
2022-10-04T09:05:28.418Z,2.13
2022-10-04T09:08:28.616Z,2.28
2022-10-04T09:11:41.608Z,2.47
2022-10-04T09:14:46.784Z,3.25
2022-10-04T09:18:00.473Z,1.98
2022-10-04T09:20:59.200Z,1.98
2022-10-04T09:23:32.119Z,2.55
2022-10-04T09:26:12.676Z,2.55
2022-10-04T09:28:52.332Z,2.60
2022-10-04T09:31:40.790Z,2.95
2022-10-04T09:34:11.528Z,2.42
2022-10-04T09:36:40.757Z,3.08
2022-10-04T09:39:31.348Z,2.70
2022-10-04T09:42:01.046Z,2.60
2022-10-04T09:44:36.336Z,2.35
2022-10-04T09:47:12.490Z,2.50
2022-10-04T09:50:01.269Z,2.75
2022-10-04T09:52:56.656Z,2.20
2022-10-04T09:55:44.731Z,2.50
2022-10-04T09:58:51.879Z,2.20
2022-10-04T10:01:28.486Z,2.00
2022-10-04T10:04:33.092Z,1.60
2022-10-04T10:07:17.905Z,2.17
2022-10-04T10:10:06.261Z,2.05
2022-10-04T10:13:14.854Z,1.50
2022-10-04T10:15:58.380Z,2.35
2022-10-04T10:18:47.267Z,1.90
2022-10-04T10:21:26.557Z,1.90
2022-10-04T10:24:22.633Z,2.30
2022-10-04T10:26:54.797Z,1.90
2022-10-04T10:29:47.631Z,2.83
2022-10-04T10:32:59.919Z,2.30
2022-10-04T10:35:42.910Z,1.70
2022-10-04T10:38:31.430Z,2.85
2022-10-04T10:41:32.387Z,2.05
2022-10-04T10:44:20.681Z,1.63
2022-10-04T10:46:58.589Z,2.80
2022-10-04T10:50:15.822Z,2.42
2022-10-04T10:53:24.263Z,2.50
2022-10-04T10:56:29.926Z,1.98
2022-10-04T10:59:06.228Z,2.33
2022-10-04T11:02:05.829Z,2.20
2022-10-04T11:04:54.860Z,2.97
2022-10-04T11:07:27.673Z,2.30
2022-10-04T11:10:19.599Z,1.80
2022-10-04T11:13:18.923Z,2.35
2022-10-04T11:16:23.187Z,2.03
2022-10-04T11:19:17.689Z,4.10
2022-10-04T11:22:07.101Z,2.10
2022-10-04T11:24:34.885Z,1.23
2022-10-04T11:27:13.958Z,1.83
2022-10-04T11:29:44.015Z,1.63
2022-10-04T11:32:13.635Z,1.30
2022-10-04T11:35:37.296Z,1.70
2022-10-04T11:38:35.809Z,1.65
2022-10-04T11:41:04.121Z,1.60
2022-10-04T11:43:37.002Z,0.90
2022-10-04T11:46:21.498Z,1.58
2022-10-04T11:49:11.229Z,1.20
2022-10-04T11:52:17.760Z,1.50
2022-10-04T11:55:23.565Z,1.55
2022-10-04T11:58:20.424Z,1.40
2022-10-04T12:01:06.431Z,1.40
2022-10-04T12:04:10.388Z,1.55
2022-10-04T12:07:03.457Z,1.33
2022-10-04T12:09:42.376Z,1.33
2022-10-04T12:12:39.622Z,1.20
2022-10-04T12:15:36.311Z,1.70
2022-10-04T12:18:13.876Z,1.30
2022-10-04T12:21:19.055Z,1.35
2022-10-04T12:24:05.369Z,1.10
2022-10-04T12:26:50.835Z,1.52
2022-10-04T12:29:31.509Z,1.00
2022-10-04T12:32:00.433Z,0.98
2022-10-04T12:34:55.149Z,1.30
2022-10-04T12:37:49.105Z,1.40
2022-10-04T12:40:24.451Z,1.30
2022-10-04T12:43:16.802Z,1.52
2022-10-04T12:45:48.294Z,1.25
2022-10-04T12:48:28.738Z,1.23
2022-10-04T12:51:00.321Z,1.05
2022-10-04T12:53:34.751Z,1.33
2022-10-04T12:56:06.017Z,1.10
2022-10-04T12:58:57.397Z,1.20
2022-10-04T13:01:34.707Z,1.10
2022-10-04T13:04:13.025Z,1.60
2022-10-04T13:06:51.784Z,1.13
2022-10-04T13:09:30.979Z,1.15
2022-10-04T13:12:06.052Z,1.30
2022-10-04T13:14:38.781Z,1.10
2022-10-04T13:17:27.278Z,0.90
2022-10-04T13:20:21.329Z,0.95
2022-10-04T13:22:57.460Z,1.10
2022-10-04T13:26:05.741Z,1.05
2022-10-04T13:28:42.590Z,0.90
2022-10-04T13:31:49.387Z,0.93
2022-10-04T13:34:46.870Z,1.00
2022-10-04T13:37:53.726Z,1.02
2022-10-04T13:40:24.070Z,0.73
2022-10-04T13:42:53.789Z,0.70
2022-10-04T13:45:54.516Z,0.90
2022-10-04T13:48:27.312Z,0.80
2022-10-04T13:51:31.806Z,0.60
2022-10-04T13:54:42.405Z,0.82
2022-10-04T13:57:24.625Z,0.80
2022-10-04T14:00:06.904Z,0.93
2022-10-04T14:02:53.916Z,0.60
2022-10-04T14:05:39.346Z,0.82
2022-10-04T14:08:09.232Z,0.82
2022-10-04T14:10:53.336Z,0.75
2022-10-04T14:13:57.552Z,0.60
2022-10-04T14:16:49.121Z,0.50
2022-10-04T14:19:49.402Z,1.08
2022-10-04T14:22:37.466Z,1.00
2022-10-04T14:25:21.796Z,1.02
2022-10-04T14:28:14.838Z,0.73
2022-10-04T14:30:56.950Z,0.65
2022-10-04T14:33:45.697Z,0.80
2022-10-04T14:36:24.431Z,1.08
2022-10-04T14:38:54.170Z,0.70
2022-10-04T14:41:41.337Z,1.02
2022-10-04T14:44:27.033Z,0.77
2022-10-04T14:47:05.382Z,0.90
2022-10-04T14:50:09.723Z,1.13
2022-10-04T14:53:05.793Z,0.77
2022-10-04T14:56:15.752Z,1.33
2022-10-04T14:59:03.760Z,0.80
2022-10-04T15:01:33.170Z,1.25
2022-10-04T15:04:45.580Z,0.80
2022-10-04T15:07:27.557Z,0.88
2022-10-04T15:10:22.792Z,1.15
2022-10-04T15:13:10.478Z,1.23
2022-10-04T15:16:04.459Z,0.80
2022-10-04T15:19:06.625Z,0.80
2022-10-04T15:22:03.108Z,1.17
2022-10-04T15:24:39.670Z,0.80
2022-10-04T15:27:34.097Z,0.57
2022-10-04T15:30:34.933Z,0.77
2022-10-04T15:33:27.403Z,0.68
2022-10-04T15:35:57.121Z,0.50
2022-10-04T15:38:35.090Z,0.70
2022-10-04T15:41:06.850Z,0.75
2022-10-04T15:43:56.768Z,0.90
2022-10-04T15:46:38.676Z,0.70
2022-10-04T15:49:17.646Z,0.88
2022-10-04T15:51:53.426Z,0.68
2022-10-04T15:54:57.848Z,1.15
2022-10-04T15:57:56.502Z,0.82
2022-10-04T16:00:38.338Z,1.10
2022-10-04T16:03:28.405Z,1.48
2022-10-04T16:06:11.964Z,1.70
2022-10-04T16:08:57.056Z,1.42
2022-10-04T16:11:46.240Z,1.10
2022-10-04T16:14:22.046Z,1.08
2022-10-04T16:17:22.334Z,0.98
2022-10-04T16:20:00.303Z,0.88
2022-10-04T16:22:30.127Z,0.90
2022-10-04T16:25:25.539Z,0.75
2022-10-04T16:27:56.190Z,0.90
2022-10-04T16:30:30.970Z,0.88
2022-10-04T16:33:06.100Z,1.23
2022-10-04T16:35:42.384Z,1.05
2022-10-04T16:38:12.007Z,0.90
2022-10-04T16:40:50.885Z,0.82
2022-10-04T16:43:17.491Z,1.60
2022-10-04T16:46:09.926Z,1.20
2022-10-04T16:48:48.775Z,0.80
2022-10-04T16:51:18.976Z,0.70
2022-10-04T16:53:59.635Z,1.08
2022-10-04T16:56:28.777Z,1.10
2022-10-04T16:59:06.413Z,0.90
2022-10-04T17:01:42.178Z,1.20
2022-10-04T17:04:14.975Z,1.15
2022-10-04T17:06:56.868Z,1.40
2022-10-04T17:09:35.643Z,1.38
2022-10-04T17:12:08.621Z,1.30
2022-10-04T17:14:56.656Z,1.48
2022-10-04T17:17:33.601Z,1.60
2022-10-04T17:20:22.570Z,1.30
2022-10-04T17:22:59.279Z,2.00
2022-10-04T17:25:44.564Z,1.55
2022-10-04T17:28:29.260Z,1.50
2022-10-04T17:31:12.310Z,1.60
2022-10-04T17:34:20.510Z,1.60
2022-10-04T17:37:11.448Z,2.60
2022-10-04T17:39:47.167Z,1.65
2022-10-04T17:42:35.222Z,1.85
2022-10-04T17:45:14.887Z,1.83
2022-10-04T17:48:24.728Z,1.60
2022-10-04T17:51:36.240Z,1.70
2022-10-04T17:54:34.339Z,1.50
2022-10-04T17:57:04.006Z,1.73
2022-10-04T17:59:44.943Z,1.83
2022-10-04T18:02:23.274Z,1.63
2022-10-04T18:04:58.892Z,2.00
2022-10-04T18:07:37.093Z,3.72
2022-10-04T18:10:33.164Z,2.03
2022-10-04T18:13:05.028Z,1.95
2022-10-04T18:15:53.411Z,2.30
2022-10-04T18:18:21.810Z,2.33
2022-10-04T18:20:54.646Z,2.33
2022-10-04T18:23:28.388Z,3.22
2022-10-04T18:25:59.181Z,2.65
2022-10-04T18:28:26.159Z,2.53
2022-10-04T18:31:00.225Z,2.58
2022-10-04T18:33:47.261Z,2.80
2022-10-04T18:36:22.511Z,3.33
2022-10-04T18:39:04.132Z,2.63
2022-10-04T18:41:50.004Z,2.45
2022-10-04T18:44:18.156Z,3.30
2022-10-04T18:46:48.369Z,2.70
2022-10-04T18:49:18.182Z,3.08
2022-10-04T18:51:54.271Z,3.03
2022-10-04T18:54:52.840Z,3.17
2022-10-04T18:57:59.471Z,3.38
2022-10-04T19:00:50.965Z,3.35
2022-10-04T19:03:27.117Z,3.50
2022-10-04T19:05:59.854Z,4.03
2022-10-04T19:08:47.234Z,3.17
2022-10-04T19:11:23.618Z,3.10
2022-10-04T19:13:59.625Z,2.95
2022-10-04T19:16:58.330Z,3.97
2022-10-04T19:19:38.037Z,4.85
2022-10-04T19:22:18.988Z,5.40
2022-10-04T19:25:04.426Z,4.90
2022-10-04T19:27:45.450Z,4.75
2022-10-04T19:30:17.099Z,4.70
2022-10-04T19:33:14.781Z,4.28
2022-10-04T19:35:47.457Z,4.80
2022-10-04T19:38:20.486Z,4.20
2022-10-04T19:41:00.932Z,4.30
2022-10-04T19:43:46.497Z,4.13
2022-10-04T19:46:22.651Z,4.60
2022-10-04T19:48:51.331Z,4.75
2022-10-04T19:51:34.794Z,5.05
2022-10-04T19:54:16.185Z,4.93
2022-10-04T19:56:50.423Z,4.88
2022-10-04T19:59:31.525Z,4.78
2022-10-04T20:01:58.426Z,5.60
2022-10-04T20:04:35.623Z,4.47
2022-10-04T20:07:11.785Z,4.85
2022-10-04T20:09:41.488Z,4.72
2022-10-04T20:12:28.783Z,4.57
2022-10-04T20:15:17.531Z,3.78
2022-10-04T20:17:45.707Z,3.92
2022-10-04T20:20:39.332Z,3.85
2022-10-04T20:23:07.831Z,4.07
2022-10-04T20:25:43.986Z,4.38
2022-10-04T20:28:38.813Z,4.43
2022-10-04T20:31:26.452Z,4.20
2022-10-04T20:33:53.648Z,4.38
2022-10-04T20:36:20.639Z,4.38
2022-10-04T20:38:59.717Z,5.03
2022-10-04T20:41:29.719Z,4.95
2022-10-04T20:44:01.741Z,4.90
2022-10-04T20:46:38.372Z,4.38
2022-10-04T20:49:14.957Z,5.20
2022-10-04T20:51:49.203Z,5.47
2022-10-04T20:54:20.419Z,5.38
2022-10-04T20:56:55.211Z,4.95
2022-10-04T20:59:24.063Z,4.85
2022-10-04T21:02:02.756Z,4.82
2022-10-04T21:04:30.446Z,4.68
2022-10-04T21:07:02.484Z,4.88
2022-10-04T21:09:31.251Z,5.00
2022-10-04T21:11:58.613Z,7.30
2022-10-04T21:14:25.358Z,7.05
2022-10-04T21:16:58.572Z,7.80
2022-10-04T21:19:48.636Z,8.27
2022-10-04T21:22:18.394Z,8.75
2022-10-04T21:24:48.257Z,9.00
2022-10-04T21:27:40.118Z,9.25
2022-10-04T21:30:14.837Z,9.05
2022-10-04T21:32:41.538Z,6.70
2022-10-04T21:35:08.989Z,6.07
2022-10-04T21:37:36.076Z,5.03
2022-10-04T21:40:03.966Z,4.68
2022-10-04T21:42:30.641Z,4.00
2022-10-04T21:44:57.599Z,4.07
2022-10-04T21:47:24.408Z,5.13
2022-10-04T21:49:52.220Z,4.18
2022-10-04T21:52:19.249Z,4.40
2022-10-04T21:54:46.148Z,4.25
2022-10-04T21:57:13.535Z,4.45
2022-10-04T21:59:40.245Z,4.88
2022-10-04T22:02:07.949Z,3.92
2022-10-04T22:04:34.712Z,4.15
2022-10-04T22:07:01.463Z,3.53
2022-10-04T22:09:28.855Z,4.18
2022-10-04T22:11:55.537Z,3.97
2022-10-04T22:14:22.172Z,3.33
2022-10-04T22:16:49.564Z,3.35
2022-10-04T22:19:16.681Z,3.13
2022-10-04T22:21:43.374Z,3.63
2022-10-04T22:24:18.018Z,3.80
2022-10-04T22:26:45.513Z,3.08
2022-10-04T22:29:14.141Z,2.97
2022-10-04T22:31:44.207Z,3.00
2022-10-04T22:34:16.933Z,3.25
2022-10-04T22:36:44.221Z,3.60
2022-10-04T22:39:14.901Z,3.22
2022-10-04T22:41:52.783Z,2.90
2022-10-04T22:44:29.011Z,3.10
2022-10-04T22:46:57.791Z,3.15
2022-10-04T22:49:46.096Z,2.95
2022-10-04T22:52:20.541Z,2.90
2022-10-04T22:54:49.625Z,3.10
2022-10-04T22:57:17.818Z,3.20
2022-10-04T22:59:47.188Z,3.20
2022-10-04T23:02:26.930Z,2.78
2022-10-04T23:04:59.448Z,2.97
2022-10-04T23:07:26.244Z,2.80
2022-10-04T23:09:53.234Z,3.20
2022-10-04T23:12:19.926Z,3.13
2022-10-04T23:14:46.652Z,2.80
2022-10-04T23:17:23.978Z,2.90
2022-10-04T23:20:09.492Z,3.03
2022-10-04T23:22:36.239Z,2.97
2022-10-04T23:25:06.303Z,3.00
2022-10-04T23:27:34.200Z,2.95
2022-10-04T23:30:04.371Z,2.85
2022-10-04T23:32:32.200Z,2.63
2022-10-04T23:35:00.455Z,2.55
2022-10-04T23:37:31.359Z,2.63
2022-10-04T23:39:58.084Z,2.97
2022-10-04T23:42:32.022Z,2.90
2022-10-04T23:45:00.083Z,2.83
2022-10-04T23:47:34.518Z,2.80
2022-10-04T23:50:01.764Z,2.92
2022-10-04T23:52:36.070Z,2.85
2022-10-04T23:55:03.168Z,3.00
2022-10-04T23:57:31.214Z,2.72
2022-10-04T23:59:59.723Z,2.50
